createdAt,value
2018-04-28T00:00:35.769Z,21.60
2018-04-28T00:03:06.511Z,21.60
2018-04-28T00:05:36.956Z,21.50
2018-04-28T00:10:38.985Z,21.60
2018-04-28T00:13:09.203Z,21.50
2018-04-28T00:15:42.526Z,21.30
2018-04-28T00:18:13.211Z,21.30
2018-04-28T00:24:05.428Z,21.30
2018-04-28T00:26:36.091Z,21.30
2018-04-28T00:29:08.466Z,21.30
2018-04-28T00:32:00.898Z,21.40
2018-04-28T00:37:58.944Z,21.30
2018-04-28T00:40:51.191Z,21.30
2018-04-28T00:46:33.913Z,21.20
2018-04-28T00:49:38.997Z,21.20
2018-04-28T00:52:14.827Z,21.00
2018-04-28T00:54:58.193Z,21.00
2018-04-28T00:57:58.224Z,21.00
2018-04-28T01:01:09.100Z,21.10
2018-04-28T01:06:42.223Z,20.80
2018-04-28T01:09:12.049Z,20.80
2018-04-28T01:11:52.432Z,20.80
2018-04-28T01:14:34.012Z,20.80
2018-04-28T01:17:05.489Z,20.80
2018-04-28T01:19:39.336Z,20.80
2018-04-28T01:22:09.161Z,20.80
2018-04-28T01:24:47.767Z,20.80
2018-04-28T01:27:22.376Z,20.90
2018-04-28T01:30:17.347Z,20.90
2018-04-28T01:33:04.868Z,20.90
2018-04-28T01:35:55.673Z,21.00
2018-04-28T01:38:43.589Z,21.10
2018-04-28T01:41:23.010Z,21.00
2018-04-28T01:46:54.606Z,21.10
2018-04-28T01:49:34.107Z,21.10
2018-04-28T01:52:10.164Z,21.10
2018-04-28T01:54:50.066Z,21.00
2018-04-28T01:57:28.919Z,21.00
2018-04-28T02:00:06.586Z,21.10
2018-04-28T02:03:03.758Z,21.10
2018-04-28T02:08:37.583Z,21.10
2018-04-28T02:11:17.083Z,21.10
2018-04-28T02:13:53.232Z,21.10
2018-04-28T02:16:38.414Z,21.10
2018-04-28T02:19:26.093Z,21.00
2018-04-28T02:22:02.115Z,20.90
2018-04-28T02:24:37.235Z,20.80
2018-04-28T02:27:14.182Z,20.80
2018-04-28T02:29:57.331Z,20.70
2018-04-28T02:32:27.144Z,20.70
2018-04-28T02:34:58.217Z,20.60
2018-04-28T02:37:48.028Z,20.60
2018-04-28T02:40:28.404Z,20.50
2018-04-28T02:43:00.183Z,20.50
2018-04-28T02:45:52.930Z,20.50
2018-04-28T02:48:29.235Z,20.50
2018-04-28T02:51:14.357Z,20.50
2018-04-28T02:53:49.488Z,20.40
2018-04-28T02:59:43.178Z,20.40
2018-04-28T03:02:31.174Z,20.30
2018-04-28T03:05:09.247Z,20.40
2018-04-28T03:07:41.260Z,20.30
2018-04-28T03:10:28.467Z,20.30
2018-04-28T03:12:58.045Z,20.30
2018-04-28T03:15:28.531Z,20.20
2018-04-28T03:18:00.115Z,20.20
2018-04-28T03:20:37.312Z,20.20
2018-04-28T03:26:30.474Z,20.20
2018-04-28T03:29:09.777Z,20.20
2018-04-28T03:31:42.123Z,20.10
2018-04-28T03:37:27.452Z,20.10
2018-04-28T03:40:06.600Z,20.10
2018-04-28T03:43:00.407Z,20.10
2018-04-28T03:45:36.638Z,20.20
2018-04-28T03:51:28.190Z,20.20
2018-04-28T03:54:07.338Z,20.20
2018-04-28T03:56:48.547Z,20.20
2018-04-28T04:02:49.934Z,20.20
2018-04-28T04:05:38.066Z,20.20
2018-04-28T04:08:10.440Z,20.20
2018-04-28T04:10:48.732Z,20.10
2018-04-28T04:16:54.644Z,20.10
2018-04-28T04:19:25.136Z,20.10
2018-04-28T04:22:03.464Z,20.10
2018-04-28T04:27:40.664Z,20.00
2018-04-28T04:30:14.274Z,20.00
2018-04-28T04:32:44.969Z,19.90
2018-04-28T04:38:30.945Z,20.00
2018-04-28T04:41:21.584Z,19.90
2018-04-28T04:47:11.284Z,19.90
2018-04-28T04:50:00.994Z,19.90
2018-04-28T04:52:35.175Z,19.80
2018-04-28T04:58:42.444Z,19.80
2018-04-28T05:01:23.226Z,19.80
2018-04-28T05:07:08.908Z,19.70
2018-04-28T05:09:55.614Z,19.60
2018-04-28T05:12:45.200Z,19.60
2018-04-28T05:15:26.838Z,19.50
2018-04-28T05:18:07.588Z,19.40
2018-04-28T05:20:54.690Z,19.40
2018-04-28T05:23:39.533Z,19.30
2018-04-28T05:26:41.155Z,19.20
2018-04-28T05:29:31.932Z,19.10
2018-04-28T05:32:12.513Z,19.00
2018-04-28T05:34:53.048Z,18.90
2018-04-28T05:40:39.296Z,18.70
2018-04-28T05:43:35.572Z,18.60
2018-04-28T05:46:15.986Z,18.60
2018-04-28T05:49:06.464Z,18.50
2018-04-28T05:51:54.577Z,18.50
2018-04-28T05:54:39.783Z,18.50
2018-04-28T05:57:26.994Z,18.40
2018-04-28T06:00:06.932Z,18.30
2018-04-28T06:06:07.280Z,18.30
2018-04-28T06:12:06.001Z,18.20
2018-04-28T06:17:46.664Z,18.30
2018-04-28T06:23:16.828Z,18.30
2018-04-28T06:25:46.754Z,18.30
2018-04-28T06:28:16.525Z,18.30
2018-04-28T06:30:46.138Z,18.30
2018-04-28T06:33:15.855Z,18.40
2018-04-28T06:35:45.617Z,18.50
2018-04-28T06:38:15.343Z,18.40
2018-04-28T06:44:07.023Z,18.40
2018-04-28T06:46:36.542Z,18.50
2018-04-28T06:49:06.033Z,18.40
2018-04-28T06:51:35.398Z,18.40
2018-04-28T06:54:04.789Z,18.40
2018-04-28T06:56:34.355Z,18.30
2018-04-28T06:59:04.001Z,18.30
2018-04-28T07:01:33.588Z,18.30
2018-04-28T07:04:03.779Z,18.30
2018-04-28T07:06:33.586Z,18.20
2018-04-28T07:09:02.871Z,18.30
2018-04-28T07:15:03.325Z,18.20
2018-04-28T07:17:32.895Z,18.30
2018-04-28T07:20:03.521Z,18.30
2018-04-28T07:22:33.081Z,18.20
2018-04-28T07:25:03.517Z,18.20
2018-04-28T07:27:33.057Z,18.20
2018-04-28T07:30:02.606Z,18.20
2018-04-28T07:32:32.161Z,18.20
2018-04-28T07:35:01.884Z,18.20
2018-04-28T07:37:31.457Z,18.20
2018-04-28T07:40:01.233Z,18.10
2018-04-28T07:42:31.483Z,18.10
2018-04-28T07:48:27.770Z,18.00
2018-04-28T07:50:58.305Z,18.00
2018-04-28T07:53:27.713Z,18.00
2018-04-28T07:55:57.473Z,18.00
2018-04-28T08:01:48.219Z,17.90
2018-04-28T08:04:18.023Z,17.90
2018-04-28T08:06:47.933Z,17.90
2018-04-28T08:09:17.725Z,17.90
2018-04-28T08:11:48.045Z,17.90
2018-04-28T08:14:42.391Z,17.80
2018-04-28T08:17:12.171Z,17.80
2018-04-28T08:19:42.233Z,17.90
2018-04-28T08:22:12.109Z,17.80
2018-04-28T08:24:42.042Z,17.80
2018-04-28T08:27:11.924Z,17.80
2018-04-28T08:29:42.058Z,17.80
2018-04-28T08:32:11.969Z,17.80
2018-04-28T08:34:41.731Z,17.70
2018-04-28T08:37:11.888Z,17.70
2018-04-28T08:39:41.846Z,17.70
2018-04-28T08:42:11.873Z,17.70
2018-04-28T08:48:03.187Z,17.70
2018-04-28T08:50:32.702Z,17.70
2018-04-28T08:53:02.548Z,17.70
2018-04-28T08:55:32.345Z,17.80
2018-04-28T08:58:02.080Z,17.70
2018-04-28T09:00:33.500Z,17.80
2018-04-28T09:03:03.038Z,17.70
2018-04-28T09:05:32.529Z,17.80
2018-04-28T09:11:22.830Z,17.80
2018-04-28T09:13:52.282Z,17.80
2018-04-28T09:16:21.869Z,17.80
2018-04-28T09:18:51.534Z,17.80
2018-04-28T09:21:21.463Z,17.80
2018-04-28T09:23:51.151Z,17.80
2018-04-28T09:26:20.700Z,17.80
2018-04-28T09:28:51.236Z,17.90
2018-04-28T09:31:20.922Z,17.80
2018-04-28T09:33:50.825Z,17.90
2018-04-28T09:36:20.491Z,17.90
2018-04-28T09:42:11.665Z,17.90
2018-04-28T09:44:41.271Z,17.90
2018-04-28T09:47:11.172Z,17.90
2018-04-28T09:49:40.726Z,17.80
2018-04-28T09:55:31.282Z,17.70
2018-04-28T10:01:47.038Z,17.60
2018-04-28T10:04:21.914Z,17.60
2018-04-28T10:06:51.453Z,17.60
2018-04-28T10:09:20.936Z,17.60
2018-04-28T10:15:11.181Z,17.50
2018-04-28T10:17:40.663Z,17.60
2018-04-28T10:20:09.999Z,17.60
2018-04-28T10:22:39.360Z,17.60
2018-04-28T10:25:09.037Z,17.60
2018-04-28T10:30:59.088Z,17.60
2018-04-28T10:33:28.412Z,17.50
2018-04-28T10:35:57.854Z,17.50
2018-04-28T10:38:27.214Z,17.60
2018-04-28T10:40:56.652Z,17.60
2018-04-28T10:43:25.974Z,17.60
2018-04-28T10:45:57.039Z,17.60
2018-04-28T10:48:26.355Z,17.60
2018-04-28T10:50:56.536Z,17.40
2018-04-28T10:53:26.031Z,17.40
2018-04-28T10:55:56.264Z,17.30
2018-04-28T11:01:47.031Z,17.30
2018-04-28T11:04:16.391Z,17.30
2018-04-28T11:06:45.772Z,17.20
2018-04-28T11:09:15.344Z,17.20
2018-04-28T11:11:44.682Z,17.10
2018-04-28T11:14:14.064Z,17.10
2018-04-28T11:16:43.538Z,17.00
2018-04-28T11:19:12.986Z,17.00
2018-04-28T11:21:44.623Z,16.90
2018-04-28T11:24:18.246Z,16.90
2018-04-28T11:26:48.572Z,16.90
2018-04-28T11:29:18.906Z,16.80
2018-04-28T11:31:48.526Z,16.90
2018-04-28T11:34:17.901Z,16.90
2018-04-28T11:36:47.342Z,16.90
2018-04-28T11:39:19.778Z,16.90
2018-04-28T11:41:49.224Z,16.90
2018-04-28T11:44:18.575Z,16.90
2018-04-28T11:46:48.192Z,16.80
2018-04-28T11:49:17.637Z,16.80
2018-04-28T11:51:47.072Z,16.90
2018-04-28T11:54:16.441Z,16.80
2018-04-28T11:56:45.833Z,16.80
2018-04-28T11:59:15.306Z,16.90
2018-04-28T12:01:44.833Z,16.90
2018-04-28T12:04:14.268Z,16.80
2018-04-28T12:06:44.539Z,16.90
2018-04-28T12:09:14.774Z,16.90
2018-04-28T12:11:45.155Z,16.90
2018-04-28T12:14:15.695Z,16.90
2018-04-28T12:16:45.041Z,16.90
2018-04-28T12:19:14.468Z,16.90
2018-04-28T12:21:43.834Z,16.90
2018-04-28T12:24:13.264Z,16.90
2018-04-28T12:26:42.598Z,16.90
2018-04-28T12:29:16.562Z,16.90
2018-04-28T12:31:51.113Z,16.90
2018-04-28T12:34:28.189Z,16.90
2018-04-28T12:36:57.608Z,16.90
2018-04-28T12:39:26.943Z,16.90
2018-04-28T12:41:56.397Z,16.80
2018-04-28T12:44:26.792Z,16.80
2018-04-28T12:46:57.489Z,16.80
2018-04-28T12:49:26.811Z,16.90
2018-04-28T12:51:56.417Z,17.00
2018-04-28T12:54:25.890Z,17.00
2018-04-28T12:57:45.738Z,17.10
2018-04-28T13:00:15.161Z,17.10
2018-04-28T13:02:44.716Z,17.00
2018-04-28T13:05:14.076Z,17.10
2018-04-28T13:07:43.749Z,17.10
2018-04-28T13:10:13.098Z,17.10
2018-04-28T13:12:43.257Z,17.10
2018-04-28T13:15:12.577Z,17.10
2018-04-28T13:17:41.934Z,17.10
2018-04-28T13:20:11.466Z,17.10
2018-04-28T13:22:40.800Z,17.10
2018-04-28T13:25:10.244Z,17.20
2018-04-28T13:27:39.657Z,17.20
2018-04-28T13:30:09.058Z,17.20
2018-04-28T13:32:38.456Z,17.20
2018-04-28T13:35:09.171Z,17.20
2018-04-28T13:37:40.383Z,17.20
2018-04-28T13:40:09.793Z,17.20
2018-04-28T13:42:40.298Z,17.20
2018-04-28T13:45:09.827Z,17.20
2018-04-28T13:47:39.203Z,17.10
2018-04-28T13:50:09.146Z,17.20
2018-04-28T13:52:39.383Z,17.20
2018-04-28T13:55:09.069Z,17.30
2018-04-28T13:57:38.462Z,17.30
2018-04-28T14:00:07.962Z,17.30
2018-04-28T14:02:37.388Z,17.30
2018-04-28T14:05:07.746Z,17.30
2018-04-28T14:07:37.110Z,17.30
2018-04-28T14:10:07.199Z,17.50
2018-04-28T14:12:40.951Z,17.50
2018-04-28T14:15:14.381Z,17.70
2018-04-28T14:17:44.040Z,18.00
2018-04-28T14:20:14.336Z,19.00
2018-04-28T14:22:43.672Z,19.00
2018-04-28T14:25:13.802Z,20.10
2018-04-28T14:27:44.977Z,20.50
2018-04-28T14:30:15.813Z,20.40
2018-04-28T14:32:47.234Z,21.00
2018-04-28T14:35:16.867Z,21.70
2018-04-28T14:37:46.267Z,22.30
2018-04-28T14:40:19.355Z,22.90
2018-04-28T14:42:48.860Z,23.10
2018-04-28T14:45:18.225Z,23.30
2018-04-28T14:47:54.561Z,23.50
2018-04-28T14:50:23.940Z,24.00
2018-04-28T14:52:53.590Z,23.70
2018-04-28T14:55:24.194Z,24.10
2018-04-28T14:57:53.577Z,24.10
2018-04-28T15:00:23.396Z,24.10
2018-04-28T15:02:53.171Z,24.10
2018-04-28T15:05:22.596Z,24.10
2018-04-28T15:07:51.946Z,24.30
2018-04-28T15:10:21.530Z,24.70
2018-04-28T15:12:52.122Z,24.50
2018-04-28T15:15:22.410Z,23.90
2018-04-28T15:17:52.212Z,23.80
2018-04-28T15:20:25.480Z,23.90
2018-04-28T15:22:54.961Z,24.20
2018-04-28T15:25:25.176Z,24.60
2018-04-28T15:27:56.143Z,24.90
2018-04-28T15:30:28.824Z,25.00
2018-04-28T15:32:58.537Z,24.90
2018-04-28T15:35:28.046Z,25.00
2018-04-28T15:37:57.712Z,24.50
2018-04-28T15:40:27.272Z,24.40
2018-04-28T15:42:56.743Z,24.70
2018-04-28T15:45:26.063Z,25.40
2018-04-28T15:47:58.108Z,25.50
2018-04-28T15:50:27.684Z,25.70
2018-04-28T15:52:57.414Z,25.80
2018-04-28T15:55:26.866Z,25.70
2018-04-28T15:57:56.422Z,25.40
2018-04-28T16:00:25.804Z,25.10
2018-04-28T16:02:57.149Z,25.40
2018-04-28T16:05:26.753Z,26.00
2018-04-28T16:07:57.001Z,26.30
2018-04-28T16:10:27.221Z,25.80
2018-04-28T16:12:57.516Z,25.50
2018-04-28T16:15:26.873Z,25.50
2018-04-28T16:17:56.183Z,26.30
2018-04-28T16:20:26.322Z,27.20
2018-04-28T16:22:55.676Z,27.20
2018-04-28T16:25:25.075Z,27.60
2018-04-28T16:27:54.496Z,27.20
2018-04-28T16:30:24.616Z,26.90
2018-04-28T16:32:54.004Z,26.90
2018-04-28T16:35:23.317Z,27.10
2018-04-28T16:37:52.654Z,26.60
2018-04-28T16:40:22.211Z,26.40
2018-04-28T16:42:51.552Z,27.20
2018-04-28T16:45:20.887Z,27.20
2018-04-28T16:47:50.910Z,27.70
2018-04-28T16:50:20.636Z,27.90
2018-04-28T16:52:51.638Z,28.10
2018-04-28T16:55:21.602Z,28.10
2018-04-28T16:57:51.004Z,27.70
2018-04-28T17:00:20.450Z,27.10
2018-04-28T17:02:49.820Z,26.80
2018-04-28T17:05:33.923Z,26.40
2018-04-28T17:08:15.172Z,25.90
2018-04-28T17:10:45.639Z,25.40
2018-04-28T17:16:36.525Z,26.80
2018-04-28T17:19:06.287Z,27.30
2018-04-28T17:21:35.952Z,27.70
2018-04-28T17:24:06.264Z,28.20
2018-04-28T17:26:35.932Z,28.10
2018-04-28T17:29:06.246Z,27.90
2018-04-28T17:31:35.886Z,27.80
2018-04-28T17:34:05.767Z,28.30
2018-04-28T17:36:35.411Z,28.70
2018-04-28T17:39:05.319Z,28.50
2018-04-28T17:41:35.016Z,28.50
2018-04-28T17:44:04.481Z,28.40
2018-04-28T17:46:34.000Z,28.20
2018-04-28T17:52:24.455Z,27.40
2018-04-28T17:54:53.799Z,27.00
2018-04-28T17:57:23.047Z,27.10
2018-04-28T17:59:53.621Z,26.60
2018-04-28T18:02:22.985Z,26.50
2018-04-28T18:04:52.280Z,26.30
2018-04-28T18:07:21.892Z,26.00
2018-04-28T18:09:51.108Z,25.90
2018-04-28T18:12:20.447Z,25.90
2018-04-28T18:14:49.814Z,25.70
2018-04-28T18:17:19.172Z,25.60
2018-04-28T18:19:49.428Z,25.70
2018-04-28T18:22:25.066Z,25.70
2018-04-28T18:24:57.598Z,25.70
2018-04-28T18:27:27.321Z,26.10
2018-04-28T18:29:56.582Z,26.40
2018-04-28T18:32:26.964Z,26.40
2018-04-28T18:34:57.958Z,26.40
2018-04-28T18:37:29.270Z,26.40
2018-04-28T18:39:58.886Z,26.40
2018-04-28T18:42:28.244Z,26.60
2018-04-28T18:44:57.612Z,27.00
2018-04-28T18:47:27.860Z,27.60
2018-04-28T18:49:57.154Z,27.60
2018-04-28T18:52:32.127Z,27.60
2018-04-28T18:55:04.377Z,28.00
2018-04-28T18:57:33.983Z,27.80
2018-04-28T19:00:03.279Z,27.70
2018-04-28T19:02:33.085Z,27.80
2018-04-28T19:05:02.603Z,27.80
2018-04-28T19:07:32.534Z,27.80
2018-04-28T19:10:07.825Z,28.00
2018-04-28T19:12:39.659Z,28.00
2018-04-28T19:15:11.950Z,27.90
2018-04-28T19:17:43.920Z,27.60
2018-04-28T19:20:16.072Z,27.60
2018-04-28T19:22:47.113Z,27.60
2018-04-28T19:25:20.490Z,27.00
2018-04-28T19:27:53.125Z,26.90
2018-04-28T19:30:24.931Z,27.10
2018-04-28T19:32:56.729Z,27.40
2018-04-28T19:35:28.488Z,27.10
2018-04-28T19:38:01.012Z,26.50
2018-04-28T19:40:35.259Z,26.40
2018-04-28T19:43:07.519Z,26.90
2018-04-28T19:45:41.256Z,27.10
2018-04-28T19:48:12.053Z,26.90
2018-04-28T19:50:43.968Z,27.10
2018-04-28T19:53:13.328Z,27.00
2018-04-28T19:55:45.948Z,27.20
2018-04-28T19:58:17.322Z,27.60
2018-04-28T20:00:53.800Z,26.90
2018-04-28T20:03:25.792Z,26.80
2018-04-28T20:05:57.122Z,26.90
2018-04-28T20:08:28.899Z,27.10
2018-04-28T20:10:58.388Z,26.80
2018-04-28T20:13:27.623Z,26.60
2018-04-28T20:15:56.906Z,27.20
2018-04-28T20:18:36.480Z,27.10
2018-04-28T20:21:05.972Z,26.60
2018-04-28T20:23:46.831Z,26.40
2018-04-28T20:26:16.118Z,26.70
2018-04-28T20:28:45.357Z,27.00
2018-04-28T20:31:14.768Z,27.50
2018-04-28T20:33:44.108Z,28.00
2018-04-28T20:36:13.377Z,27.80
2018-04-28T20:38:43.045Z,27.70
2018-04-28T20:41:12.309Z,27.60
2018-04-28T20:43:41.833Z,27.20
2018-04-28T20:46:11.151Z,27.20
2018-04-28T20:48:44.116Z,27.30
2018-04-28T20:51:13.508Z,27.30
2018-04-28T20:53:43.141Z,27.00
2018-04-28T20:56:21.089Z,27.20
2018-04-28T20:58:50.470Z,27.10
2018-04-28T21:01:20.707Z,26.90
2018-04-28T21:03:50.255Z,26.90
2018-04-28T21:06:19.505Z,26.40
2018-04-28T21:08:59.282Z,26.40
2018-04-28T21:11:39.091Z,27.10
2018-04-28T21:14:08.950Z,27.10
2018-04-28T21:16:42.602Z,27.50
2018-04-28T21:19:19.969Z,27.80
2018-04-28T21:21:50.740Z,27.80
2018-04-28T21:24:20.065Z,27.20
2018-04-28T21:26:49.442Z,27.10
2018-04-28T21:29:18.697Z,27.20
2018-04-28T21:31:48.332Z,27.40
2018-04-28T21:37:39.157Z,26.40
2018-04-28T21:40:08.523Z,26.30
2018-04-28T21:42:37.948Z,26.20
2018-04-28T21:45:08.406Z,26.00
2018-04-28T21:47:37.788Z,26.00
2018-04-28T21:50:07.066Z,26.40
2018-04-28T21:52:36.513Z,26.60
2018-04-28T21:55:05.867Z,26.80
2018-04-28T21:57:35.093Z,26.90
2018-04-28T22:00:04.618Z,27.00
2018-04-28T22:02:33.945Z,26.70
2018-04-28T22:05:03.184Z,26.70
2018-04-28T22:07:32.541Z,26.70
2018-04-28T22:10:01.904Z,26.80
2018-04-28T22:12:31.172Z,26.90
2018-04-28T22:15:00.991Z,27.00
2018-04-28T22:17:30.385Z,26.90
2018-04-28T22:19:59.733Z,27.00
2018-04-28T22:25:50.628Z,27.20
2018-04-28T22:28:20.068Z,27.20
2018-04-28T22:30:50.722Z,26.90
2018-04-28T22:33:20.236Z,26.90
2018-04-28T22:35:50.473Z,26.90
2018-04-28T22:38:20.063Z,26.80
2018-04-28T22:41:27.405Z,26.40
2018-04-28T22:43:56.668Z,26.40
2018-04-28T22:46:26.187Z,26.40
2018-04-28T22:48:56.287Z,26.70
2018-04-28T22:51:26.724Z,26.70
2018-04-28T22:53:57.223Z,26.60
2018-04-28T22:56:26.523Z,26.50
2018-04-28T22:58:55.939Z,26.50
2018-04-28T23:01:25.347Z,26.50
2018-04-28T23:03:54.812Z,26.60
2018-04-28T23:06:24.075Z,26.40
2018-04-28T23:08:53.746Z,26.20
2018-04-28T23:11:23.016Z,26.20
2018-04-28T23:13:52.439Z,26.20
2018-04-28T23:16:21.773Z,26.10
2018-04-28T23:18:51.075Z,25.90
2018-04-28T23:21:20.455Z,25.80
2018-04-28T23:27:10.684Z,25.60
2018-04-28T23:29:40.229Z,25.30
2018-04-28T23:32:09.634Z,25.00
2018-04-28T23:34:39.205Z,24.80
2018-04-28T23:37:08.598Z,24.60
2018-04-28T23:40:08.349Z,24.50
2018-04-28T23:42:38.273Z,24.10
2018-04-28T23:45:07.693Z,24.10
2018-04-28T23:47:37.185Z,24.10
2018-04-28T23:50:06.642Z,24.00
2018-04-28T23:52:36.398Z,23.80
2018-04-28T23:55:05.859Z,23.80
2018-04-28T23:57:35.033Z,23.60
